Red Wing, Minnesota
Current Conditions -  °F | °C
As of 9:50 PM on Friday 28 Nov 2014 (Local Time) from KRGK Reporting Station
Clear Clear  
Wind Chill: 15°   Ceiling: Unl
Heat Index: 25°   Visibility: 10mi
Dew Point: 19°   Wind: 9mph
Humidity: 80%   Direction: 120°ESE
Pressure: 29.75"   Gusts: NA
Location:  44.57°N, 92.53°W
Report Text: KRGK 290350Z AUTO 12008KT 10SM CLR M04/M07 A2975 RMK AO2
Loading
Personal Weather Stations






























Interactive Weather Map New forecast layout! Learn more

10-Day Weather Forecast

Advertisements
Track Severe Weather on mobile